createdAt,value
2023-05-08T00:00:47.234Z,1966.00
2023-05-08T00:01:47.285Z,1974.00
2023-05-08T00:02:47.350Z,1976.00
2023-05-08T00:03:47.544Z,1973.00
2023-05-08T00:04:47.403Z,1964.00
2023-05-08T00:05:47.423Z,1985.00
2023-05-08T00:06:47.465Z,1995.00
2023-05-08T00:07:47.492Z,1984.00
2023-05-08T00:08:47.538Z,1980.00
2023-05-08T00:09:47.582Z,1995.00
2023-05-08T00:10:47.620Z,1995.00
2023-05-08T00:11:47.670Z,1970.00
2023-05-08T00:12:47.718Z,1972.00
2023-05-08T00:13:47.750Z,1954.00
2023-05-08T00:14:47.794Z,1965.00
2023-05-08T00:15:47.822Z,1977.00
2023-05-08T00:16:47.907Z,1967.00
2023-05-08T00:17:47.932Z,1934.00
2023-05-08T00:18:47.950Z,1951.00
2023-05-08T00:19:48.013Z,1931.00
2023-05-08T00:20:48.049Z,1936.00
2023-05-08T00:21:48.086Z,1928.00
2023-05-08T00:22:48.120Z,1929.00
2023-05-08T00:23:48.183Z,1928.00
2023-05-08T00:24:48.228Z,1934.00
2023-05-08T00:25:48.254Z,1948.00
2023-05-08T00:26:48.303Z,1946.00
2023-05-08T00:27:48.334Z,1951.00
2023-05-08T00:28:48.378Z,1928.00
2023-05-08T00:29:48.388Z,1932.00
2023-05-08T00:30:48.480Z,1935.00
2023-05-08T00:31:48.520Z,1933.00
2023-05-08T00:32:48.624Z,1929.00
2023-05-08T00:33:48.549Z,1921.00
2023-05-08T00:34:48.596Z,1932.00
2023-05-08T00:35:48.668Z,1922.00
2023-05-08T00:36:48.664Z,1927.00
2023-05-08T00:37:48.710Z,1950.00
2023-05-08T00:38:48.728Z,1947.00
2023-05-08T00:39:48.754Z,1939.00
2023-05-08T00:40:48.769Z,1939.00
2023-05-08T00:41:48.846Z,1945.00
2023-05-08T00:42:48.890Z,1951.00
2023-05-08T00:43:48.883Z,1966.00
2023-05-08T00:44:48.957Z,1981.00
2023-05-08T00:45:48.969Z,1989.00
2023-05-08T00:46:49.068Z,2003.00
2023-05-08T00:47:49.052Z,2002.00
2023-05-08T00:48:49.129Z,1991.00
2023-05-08T00:49:49.124Z,1990.00
2023-05-08T00:50:49.172Z,1975.00
2023-05-08T00:51:49.156Z,1986.00
2023-05-08T00:52:49.249Z,1990.00
2023-05-08T00:53:49.249Z,1979.00
2023-05-08T00:54:49.287Z,1976.00
2023-05-08T00:55:49.328Z,1972.00
2023-05-08T00:56:49.390Z,1980.00
2023-05-08T00:57:49.399Z,1955.00
2023-05-08T00:58:49.447Z,1980.00
2023-05-08T00:59:49.453Z,1990.00
2023-05-08T01:00:49.494Z,1991.00
2023-05-08T01:01:49.542Z,1981.00
2023-05-08T01:02:49.665Z,1983.00
2023-05-08T01:03:49.693Z,1982.00
2023-05-08T01:04:49.640Z,1971.00
2023-05-08T01:05:49.668Z,1975.00
2023-05-08T01:06:49.721Z,1993.00
2023-05-08T01:07:49.717Z,2010.00
2023-05-08T01:08:49.777Z,2007.00
2023-05-08T01:09:49.790Z,2028.00
2023-05-08T01:10:49.843Z,2015.00
2023-05-08T01:11:49.893Z,2039.00
2023-05-08T01:12:49.951Z,2003.00
2023-05-08T01:13:49.955Z,2004.00
2023-05-08T01:14:50.006Z,1993.00
2023-05-08T01:15:50.004Z,1986.00
2023-05-08T01:16:50.029Z,1990.00
2023-05-08T01:17:50.110Z,2008.00
2023-05-08T01:18:50.150Z,1994.00
2023-05-08T01:19:50.159Z,1996.00
2023-05-08T01:20:50.184Z,2021.00
2023-05-08T01:21:50.198Z,2002.00
2023-05-08T01:22:50.293Z,2003.00
2023-05-08T01:23:50.311Z,2008.00
2023-05-08T01:24:50.310Z,2021.00
2023-05-08T01:25:50.358Z,2016.00
2023-05-08T01:26:50.395Z,2016.00
2023-05-08T01:27:50.443Z,1991.00
2023-05-08T01:28:50.480Z,2025.00
2023-05-08T01:29:50.481Z,2030.00
2023-05-08T01:30:50.495Z,2019.00
2023-05-08T01:31:50.568Z,2016.00
2023-05-08T01:32:50.705Z,2020.00
2023-05-08T01:33:50.676Z,2030.00
2023-05-08T01:34:50.684Z,2044.00
2023-05-08T01:35:50.716Z,2049.00
2023-05-08T01:36:50.719Z,2049.00
2023-05-08T01:37:50.770Z,2061.00
2023-05-08T01:38:50.832Z,2038.00
2023-05-08T01:39:50.870Z,2032.00
2023-05-08T01:40:50.898Z,2050.00
2023-05-08T01:41:50.922Z,2081.00
2023-05-08T01:42:50.962Z,2069.00
2023-05-08T01:43:51.008Z,2067.00
2023-05-08T01:44:51.032Z,2047.00
2023-05-08T01:45:51.099Z,2052.00
2023-05-08T01:46:51.186Z,2066.00
2023-05-08T01:47:51.152Z,2079.00
2023-05-08T01:48:51.170Z,2100.00
2023-05-08T01:49:51.222Z,2097.00
2023-05-08T01:50:51.254Z,2086.00
2023-05-08T01:51:51.268Z,2079.00
2023-05-08T01:52:51.330Z,2104.00
2023-05-08T01:53:51.348Z,2112.00
2023-05-08T01:54:51.358Z,2103.00
2023-05-08T01:55:51.410Z,2104.00
2023-05-08T01:56:51.439Z,2118.00
2023-05-08T01:57:51.488Z,2112.00
2023-05-08T01:58:51.486Z,2140.00
2023-05-08T01:59:51.530Z,2118.00
2023-05-08T02:00:51.607Z,2107.00
2023-05-08T02:01:51.635Z,2114.00
2023-05-08T02:02:51.676Z,2107.00
2023-05-08T02:03:51.700Z,2111.00
2023-05-08T02:04:51.724Z,2105.00
2023-05-08T02:05:51.741Z,2102.00
2023-05-08T02:06:51.718Z,2127.00
2023-05-08T02:07:51.793Z,2119.00
2023-05-08T02:08:51.820Z,2128.00
2023-05-08T02:09:51.831Z,2110.00
2023-05-08T02:10:51.871Z,2105.00
2023-05-08T02:11:51.937Z,2124.00
2023-05-08T02:12:51.990Z,2094.00
2023-05-08T02:13:51.980Z,2103.00
2023-05-08T02:14:52.028Z,2116.00
2023-05-08T02:15:52.049Z,2110.00
2023-05-08T02:16:52.109Z,2114.00
2023-05-08T02:17:52.221Z,2105.00
2023-05-08T02:18:52.140Z,2114.00
2023-05-08T02:19:52.150Z,2124.00
2023-05-08T02:20:52.178Z,2115.00
2023-05-08T02:21:52.227Z,2124.00
2023-05-08T02:22:52.332Z,2148.00
2023-05-08T02:23:52.273Z,2132.00
2023-05-08T02:24:52.330Z,2124.00
2023-05-08T02:25:52.351Z,2154.00
2023-05-08T02:26:52.373Z,2153.00
2023-05-08T02:27:52.415Z,2166.00
2023-05-08T02:28:52.447Z,2156.00
2023-05-08T02:29:52.478Z,2153.00
2023-05-08T02:30:52.509Z,2139.00
2023-05-08T02:31:52.596Z,2141.00
2023-05-08T02:32:52.563Z,2126.00
2023-05-08T02:33:52.588Z,2152.00
2023-05-08T02:35:02.501Z,2156.00
2023-05-08T02:35:53.618Z,2157.00
2023-05-08T02:36:52.591Z,2158.00
2023-05-08T02:37:52.635Z,2155.00
2023-05-08T02:38:52.579Z,2169.00
2023-05-08T02:39:52.621Z,2160.00
2023-05-08T02:40:52.559Z,2165.00
2023-05-08T02:41:52.594Z,2191.00
2023-05-08T02:42:52.568Z,2191.00
2023-05-08T02:43:52.558Z,2184.00
2023-05-08T02:44:52.564Z,2188.00
2023-05-08T02:45:52.675Z,2207.00
2023-05-08T02:46:52.538Z,2194.00
2023-05-08T02:47:52.591Z,2185.00
2023-05-08T02:48:52.517Z,2171.00
2023-05-08T02:49:52.523Z,2186.00
2023-05-08T02:50:52.556Z,2194.00
2023-05-08T02:51:52.574Z,2202.00
2023-05-08T02:52:52.622Z,2205.00
2023-05-08T02:53:52.623Z,2214.00
2023-05-08T02:54:52.666Z,2202.00
2023-05-08T02:55:52.700Z,2181.00
2023-05-08T02:56:52.743Z,2202.00
2023-05-08T02:57:52.750Z,2201.00
2023-05-08T02:58:52.795Z,2207.00
2023-05-08T02:59:52.830Z,2224.00
2023-05-08T03:00:52.853Z,2211.00
2023-05-08T03:01:53.022Z,2232.00
2023-05-08T03:02:52.993Z,2229.00
2023-05-08T03:03:53.214Z,2227.00
2023-05-08T03:04:52.965Z,2237.00
2023-05-08T03:05:52.975Z,2236.00
2023-05-08T03:06:53.026Z,2247.00
2023-05-08T03:07:53.038Z,2243.00
2023-05-08T03:08:53.085Z,2231.00
2023-05-08T03:09:53.116Z,2248.00
2023-05-08T03:10:53.128Z,2236.00
2023-05-08T03:11:53.145Z,2253.00
2023-05-08T03:12:53.223Z,2255.00
2023-05-08T03:13:53.216Z,2258.00
2023-05-08T03:14:53.259Z,2262.00
2023-05-08T03:15:53.325Z,2243.00
2023-05-08T03:16:53.294Z,2248.00
2023-05-08T03:17:53.371Z,2241.00
2023-05-08T03:18:53.423Z,2263.00
2023-05-08T03:19:53.389Z,2252.00
2023-05-08T03:20:53.434Z,2261.00
2023-05-08T03:21:53.480Z,2259.00
2023-05-08T03:22:53.513Z,2270.00
2023-05-08T03:23:53.554Z,2272.00
2023-05-08T03:24:53.596Z,2270.00
2023-05-08T03:25:53.576Z,2260.00
2023-05-08T03:26:53.618Z,2269.00
2023-05-08T03:27:53.654Z,2260.00
2023-05-08T03:28:53.690Z,2245.00
2023-05-08T03:29:53.715Z,2246.00
2023-05-08T03:30:53.760Z,2246.00
2023-05-08T03:31:53.738Z,2271.00
2023-05-08T03:32:53.797Z,2262.00
2023-05-08T03:33:53.765Z,2258.00
2023-05-08T03:34:53.772Z,2259.00
2023-05-08T03:35:53.765Z,2273.00
2023-05-08T03:36:53.751Z,2261.00
2023-05-08T03:37:53.815Z,2281.00
2023-05-08T03:38:53.840Z,2289.00
2023-05-08T03:39:53.840Z,2273.00
2023-05-08T03:40:53.864Z,2284.00
2023-05-08T03:41:53.914Z,2273.00
2023-05-08T03:42:53.948Z,2282.00
2023-05-08T03:43:53.974Z,2292.00
2023-05-08T03:44:54.006Z,2298.00
2023-05-08T03:45:54.006Z,2307.00
2023-05-08T03:46:54.091Z,2283.00
2023-05-08T03:47:54.136Z,2284.00
2023-05-08T03:48:54.105Z,2283.00
2023-05-08T03:49:54.109Z,2291.00
2023-05-08T03:50:54.164Z,2309.00
2023-05-08T03:51:54.206Z,2290.00
2023-05-08T03:52:54.239Z,2300.00
2023-05-08T03:53:54.276Z,2287.00
2023-05-08T03:54:54.285Z,2286.00
2023-05-08T03:55:54.296Z,2301.00
2023-05-08T03:56:54.345Z,2297.00
2023-05-08T03:57:54.357Z,2308.00
2023-05-08T03:58:54.376Z,2293.00
2023-05-08T03:59:54.430Z,2299.00
2023-05-08T04:00:54.468Z,2310.00
2023-05-08T04:01:54.475Z,2311.00
2023-05-08T04:02:54.584Z,2318.00
2023-05-08T04:03:54.733Z,2318.00
2023-05-08T04:04:54.556Z,2317.00
2023-05-08T04:05:54.585Z,2326.00
2023-05-08T04:06:54.608Z,2320.00
2023-05-08T04:07:54.618Z,2304.00
2023-05-08T04:08:54.668Z,2290.00
2023-05-08T04:09:54.674Z,2302.00
2023-05-08T04:10:54.688Z,2296.00
2023-05-08T04:11:54.741Z,2319.00
2023-05-08T04:12:54.769Z,2280.00
2023-05-08T04:13:54.782Z,2293.00
2023-05-08T04:14:56.521Z,2295.00
2023-05-08T04:15:54.853Z,2280.00
2023-05-08T04:16:54.891Z,2295.00
2023-05-08T04:17:54.928Z,2292.00
2023-05-08T04:18:54.911Z,2282.00
2023-05-08T04:19:54.940Z,2291.00
2023-05-08T04:20:54.976Z,2306.00
2023-05-08T04:21:55.003Z,2280.00
2023-05-08T04:22:55.015Z,2276.00
2023-05-08T04:23:55.079Z,2276.00
2023-05-08T04:24:55.105Z,2276.00
2023-05-08T04:25:55.132Z,2280.00
2023-05-08T04:26:55.132Z,2285.00
2023-05-08T04:27:55.202Z,2290.00
2023-05-08T04:28:55.208Z,2292.00
2023-05-08T04:29:55.249Z,2289.00
2023-05-08T04:30:55.250Z,2285.00
2023-05-08T04:31:55.280Z,2279.00
2023-05-08T04:32:55.323Z,2282.00
2023-05-08T04:33:55.312Z,2285.00
2023-05-08T04:34:55.406Z,2267.00
2023-05-08T04:35:55.400Z,2289.00
2023-05-08T04:36:55.427Z,2261.00
2023-05-08T04:37:55.467Z,2267.00
2023-05-08T04:38:55.497Z,2259.00
2023-05-08T04:39:55.523Z,2250.00
2023-05-08T04:40:55.517Z,2249.00
2023-05-08T04:41:55.558Z,2243.00
2023-05-08T04:42:55.604Z,2251.00
2023-05-08T04:43:55.626Z,2258.00
2023-05-08T04:44:55.650Z,2266.00
2023-05-08T04:45:55.727Z,2283.00
2023-05-08T04:46:55.674Z,2281.00
2023-05-08T04:47:55.717Z,2302.00
2023-05-08T04:48:55.746Z,2306.00
2023-05-08T04:49:55.771Z,2288.00
2023-05-08T04:50:55.801Z,2304.00
2023-05-08T04:51:55.850Z,2296.00
2023-05-08T04:52:55.871Z,2306.00
2023-05-08T04:53:55.880Z,2304.00
2023-05-08T04:54:55.923Z,2288.00
2023-05-08T04:55:55.930Z,2305.00
2023-05-08T04:56:55.982Z,2297.00
2023-05-08T04:57:55.980Z,2303.00
2023-05-08T04:58:56.040Z,2301.00
2023-05-08T04:59:56.070Z,2312.00
2023-05-08T05:00:56.085Z,2302.00
2023-05-08T05:02:03.202Z,2312.00
2023-05-08T05:02:56.160Z,2314.00
2023-05-08T05:03:56.100Z,2319.00
2023-05-08T05:04:56.100Z,2322.00
2023-05-08T05:05:56.093Z,2332.00
2023-05-08T05:06:56.090Z,2338.00
2023-05-08T05:07:56.102Z,2346.00
2023-05-08T05:08:56.110Z,2356.00
2023-05-08T05:09:56.096Z,2344.00
2023-05-08T05:10:56.073Z,2356.00
2023-05-08T05:11:57.968Z,2356.00
2023-05-08T05:12:56.090Z,2359.00
2023-05-08T05:13:56.032Z,2347.00
2023-05-08T05:14:56.036Z,2357.00
2023-05-08T05:15:56.077Z,2352.00
2023-05-08T05:16:56.008Z,2347.00
2023-05-08T05:17:56.037Z,2345.00
2023-05-08T05:18:56.026Z,2361.00
2023-05-08T05:19:56.029Z,2362.00
2023-05-08T05:20:56.069Z,2365.00
2023-05-08T05:21:56.077Z,2366.00
2023-05-08T05:22:56.135Z,2387.00
2023-05-08T05:23:56.127Z,2389.00
2023-05-08T05:24:56.152Z,2402.00
2023-05-08T05:25:56.214Z,2398.00
2023-05-08T05:26:56.219Z,2420.00
2023-05-08T05:27:56.282Z,2433.00
2023-05-08T05:28:56.311Z,2400.00
2023-05-08T05:29:56.328Z,2419.00
2023-05-08T05:30:56.335Z,2438.00
2023-05-08T05:31:56.500Z,2420.00
2023-05-08T05:32:56.454Z,2427.00
2023-05-08T05:33:56.505Z,2483.00
2023-05-08T05:34:56.448Z,2509.00
2023-05-08T05:35:56.502Z,2569.00
2023-05-08T05:36:56.512Z,2611.00
2023-05-08T05:37:56.576Z,2690.00
2023-05-08T05:38:57.021Z,2776.00
2023-05-08T05:39:57.688Z,2822.00
2023-05-08T05:40:56.681Z,2824.00
2023-05-08T05:41:56.639Z,2833.00
2023-05-08T05:42:57.497Z,2862.00
2023-05-08T05:43:56.567Z,2938.00
2023-05-08T05:44:56.574Z,3062.00
2023-05-08T05:46:04.070Z,3108.00
2023-05-08T05:46:56.638Z,3112.00
2023-05-08T05:47:56.617Z,3128.00
2023-05-08T05:48:57.021Z,3168.00
2023-05-08T05:49:56.613Z,3236.00
2023-05-08T05:50:56.613Z,3336.00
2023-05-08T05:51:56.529Z,3384.00
2023-05-08T05:52:56.545Z,3403.00
2023-05-08T05:53:56.524Z,3432.00
2023-05-08T05:54:56.526Z,3436.00
2023-05-08T05:55:56.574Z,3477.00
2023-05-08T05:56:56.477Z,3509.00
2023-05-08T05:57:56.488Z,3522.00
2023-05-08T05:58:56.505Z,3542.00
2023-05-08T05:59:56.537Z,3556.00
2023-05-08T06:00:56.585Z,3585.00
2023-05-08T06:01:56.606Z,3612.00
2023-05-08T06:02:56.698Z,3626.00
2023-05-08T06:03:56.582Z,3643.00
2023-05-08T06:04:56.428Z,3639.00
2023-05-08T06:05:56.684Z,3663.00
2023-05-08T06:06:56.425Z,3673.00
2023-05-08T06:07:56.433Z,3689.00
2023-05-08T06:08:56.460Z,3709.00
2023-05-08T06:09:56.428Z,3715.00
2023-05-08T06:10:56.559Z,3709.00
2023-05-08T06:11:56.551Z,3598.00
2023-05-08T06:12:56.633Z,3584.00
2023-05-08T06:13:57.043Z,3562.00
2023-05-08T06:14:56.803Z,3470.00
2023-05-08T06:15:56.858Z,3427.00
2023-05-08T06:16:56.952Z,3350.00
2023-05-08T06:17:57.081Z,3267.00
2023-05-08T06:18:57.005Z,3253.00
2023-05-08T06:19:57.038Z,3316.00
2023-05-08T06:20:57.014Z,3202.00
2023-05-08T06:21:57.114Z,3151.00
2023-05-08T06:22:57.059Z,3196.00
2023-05-08T06:23:57.098Z,3163.00
2023-05-08T06:24:57.064Z,3181.00
2023-05-08T06:25:57.056Z,3150.00
2023-05-08T06:26:57.066Z,3169.00
2023-05-08T06:27:57.086Z,3110.00
2023-05-08T06:28:57.043Z,3165.00
2023-05-08T06:29:57.540Z,3123.00
2023-05-08T06:30:57.129Z,3141.00
2023-05-08T06:31:57.101Z,3159.00
2023-05-08T06:32:57.123Z,3025.00
2023-05-08T06:33:57.044Z,3047.00
2023-05-08T06:34:57.036Z,3101.00
2023-05-08T06:35:57.058Z,3034.00
2023-05-08T06:36:57.070Z,3012.00
2023-05-08T06:37:57.141Z,2858.00
2023-05-08T06:38:57.131Z,2888.00
2023-05-08T06:40:11.056Z,2962.00
2023-05-08T06:40:58.074Z,2964.00
2023-05-08T06:41:57.103Z,2970.00
2023-05-08T06:42:57.139Z,2969.00
2023-05-08T06:43:57.091Z,2987.00
2023-05-08T06:44:57.610Z,3079.00
2023-05-08T06:45:57.182Z,3140.00
2023-05-08T06:46:57.235Z,3203.00
2023-05-08T06:47:57.300Z,3245.00
2023-05-08T06:48:58.220Z,3248.00
2023-05-08T06:49:58.201Z,3249.00
2023-05-08T06:50:57.261Z,3265.00
2023-05-08T06:51:58.417Z,3251.00
2023-05-08T06:52:57.146Z,3270.00
2023-05-08T06:53:57.187Z,3307.00
2023-05-08T06:54:57.189Z,3361.00
2023-05-08T06:55:57.249Z,3434.00
2023-05-08T06:56:57.126Z,3455.00
2023-05-08T06:57:57.149Z,3492.00
2023-05-08T06:59:07.754Z,3478.00
2023-05-08T06:59:59.220Z,3479.00
2023-05-08T07:00:57.180Z,3485.00
2023-05-08T07:01:57.456Z,3488.00
2023-05-08T07:02:57.248Z,3490.00
2023-05-08T07:03:57.171Z,3518.00
2023-05-08T07:04:57.243Z,3530.00
2023-05-08T07:05:57.114Z,3510.00
2023-05-08T07:06:57.160Z,3526.00
2023-05-08T07:07:57.060Z,3516.00
2023-05-08T07:08:57.070Z,3545.00
2023-05-08T07:09:57.574Z,3551.00
2023-05-08T07:10:57.060Z,3559.00
2023-05-08T07:11:57.031Z,3572.00
2023-05-08T07:12:57.255Z,3574.00
2023-05-08T07:13:57.271Z,3580.00
2023-05-08T07:14:58.018Z,3612.00
2023-05-08T07:15:57.253Z,3620.00
2023-05-08T07:16:58.135Z,3621.00
2023-05-08T07:17:57.163Z,3623.00
2023-05-08T07:18:57.209Z,3634.00
2023-05-08T07:19:57.092Z,3638.00
2023-05-08T07:20:57.192Z,3637.00
2023-05-08T07:21:57.150Z,3645.00
2023-05-08T07:22:57.085Z,3644.00
2023-05-08T07:23:57.087Z,3642.00
2023-05-08T07:24:57.570Z,3643.00
2023-05-08T07:25:57.078Z,3642.00
2023-05-08T07:26:57.066Z,3633.00
2023-05-08T07:27:58.644Z,3613.00
2023-05-08T07:28:57.044Z,3606.00
2023-05-08T07:29:57.089Z,3631.00
2023-05-08T07:30:57.076Z,3605.00
2023-05-08T07:31:57.129Z,3604.00
2023-05-08T07:32:57.116Z,3604.00
2023-05-08T07:33:57.062Z,3452.00
2023-05-08T07:34:57.024Z,3191.00
2023-05-08T07:35:57.032Z,3027.00
2023-05-08T07:36:56.996Z,2681.00
2023-05-08T07:37:57.002Z,2469.00
2023-05-08T07:38:57.016Z,2324.00
2023-05-08T07:39:57.020Z,2265.00
2023-05-08T07:40:57.192Z,2209.00
2023-05-08T07:41:56.971Z,2273.00
2023-05-08T07:42:56.984Z,2375.00
2023-05-08T07:43:56.973Z,2491.00
2023-05-08T07:44:56.990Z,2590.00
2023-05-08T07:45:56.927Z,2664.00
2023-05-08T07:46:56.952Z,2780.00
2023-05-08T07:47:57.073Z,2821.00
2023-05-08T07:48:56.941Z,2870.00
2023-05-08T07:49:57.073Z,2937.00
2023-05-08T07:50:56.932Z,2983.00
2023-05-08T07:51:56.895Z,2990.00
2023-05-08T07:52:56.896Z,3039.00
2023-05-08T07:53:56.895Z,3053.00
2023-05-08T07:54:57.091Z,3085.00
2023-05-08T07:55:56.913Z,3132.00
2023-05-08T07:56:56.880Z,3140.00
2023-05-08T07:57:56.827Z,3176.00
2023-05-08T07:58:56.818Z,3191.00
2023-05-08T07:59:57.034Z,3192.00
2023-05-08T08:00:56.830Z,3221.00
2023-05-08T08:01:56.862Z,3211.00
2023-05-08T08:02:56.922Z,3245.00
2023-05-08T08:03:57.013Z,3274.00
2023-05-08T08:04:57.107Z,3295.00
2023-05-08T08:05:56.843Z,3321.00
2023-05-08T08:06:56.800Z,3336.00
2023-05-08T08:07:56.897Z,3340.00
2023-05-08T08:08:56.778Z,3329.00
2023-05-08T08:09:56.787Z,3253.00
2023-05-08T08:10:56.814Z,3066.00
2023-05-08T08:11:56.757Z,3054.00
2023-05-08T08:12:56.900Z,3132.00
2023-05-08T08:13:56.738Z,3137.00
2023-05-08T08:14:56.734Z,3160.00
2023-05-08T08:15:56.792Z,3201.00
2023-05-08T08:16:56.785Z,3225.00
2023-05-08T08:17:56.799Z,3245.00
2023-05-08T08:18:56.707Z,3258.00
2023-05-08T08:19:56.818Z,3267.00
2023-05-08T08:20:56.717Z,3288.00
2023-05-08T08:21:56.733Z,3286.00
2023-05-08T08:22:56.775Z,3298.00
2023-05-08T08:23:56.705Z,3296.00
2023-05-08T08:24:56.753Z,3313.00
2023-05-08T08:25:56.685Z,3319.00
2023-05-08T08:26:56.653Z,3330.00
2023-05-08T08:27:56.677Z,3322.00
2023-05-08T08:28:56.704Z,3343.00
2023-05-08T08:30:15.178Z,3333.00
2023-05-08T08:30:58.146Z,3335.00
2023-05-08T08:31:56.649Z,3335.00
2023-05-08T08:32:56.642Z,3342.00
2023-05-08T08:33:56.649Z,3362.00
2023-05-08T08:34:56.635Z,3362.00
2023-05-08T08:35:57.185Z,2758.00
2023-05-08T08:36:56.633Z,2309.00
2023-05-08T08:37:56.952Z,2120.00
2023-05-08T08:38:56.592Z,1999.00
2023-05-08T08:39:57.506Z,2053.00
2023-05-08T08:40:56.596Z,2000.00
2023-05-08T08:41:56.599Z,1952.00
2023-05-08T08:42:56.584Z,1857.00
2023-05-08T08:43:56.589Z,1775.00
2023-05-08T08:44:56.580Z,1782.00
2023-05-08T08:45:56.636Z,1729.00
2023-05-08T08:46:57.568Z,1675.00
2023-05-08T08:47:56.574Z,1634.00
2023-05-08T08:48:56.555Z,1666.00
2023-05-08T08:49:56.534Z,1677.00
2023-05-08T08:50:56.595Z,1661.00
2023-05-08T08:51:56.620Z,1677.00
2023-05-08T08:52:56.521Z,1676.00
2023-05-08T08:53:56.539Z,1717.00
2023-05-08T08:54:56.576Z,1830.00
2023-05-08T08:55:56.580Z,1911.00
2023-05-08T08:56:56.482Z,2005.00
2023-05-08T08:57:56.601Z,2085.00
2023-05-08T08:58:56.643Z,2125.00
2023-05-08T08:59:56.603Z,2187.00
2023-05-08T09:00:56.655Z,2200.00
2023-05-08T09:01:56.716Z,2211.00
2023-05-08T09:02:56.824Z,2288.00
2023-05-08T09:03:56.828Z,2266.00
2023-05-08T09:04:56.736Z,2254.00
2023-05-08T09:05:57.135Z,2221.00
2023-05-08T09:06:56.790Z,2260.00
2023-05-08T09:07:56.835Z,2253.00
2023-05-08T09:08:56.790Z,2252.00
2023-05-08T09:09:56.797Z,2357.00
2023-05-08T09:10:57.138Z,2469.00
2023-05-08T09:11:56.807Z,2517.00
2023-05-08T09:12:56.920Z,2557.00
2023-05-08T09:13:56.811Z,2588.00
2023-05-08T09:14:56.840Z,2638.00
2023-05-08T09:15:57.130Z,2712.00
2023-05-08T09:16:56.932Z,2733.00
2023-05-08T09:17:57.053Z,2794.00
2023-05-08T09:18:57.126Z,2826.00
2023-05-08T09:19:57.120Z,2831.00
2023-05-08T09:20:57.162Z,2878.00
2023-05-08T09:21:57.255Z,2895.00
2023-05-08T09:22:57.357Z,2914.00
2023-05-08T09:23:57.450Z,2934.00
2023-05-08T09:24:57.390Z,2922.00
2023-05-08T09:25:57.644Z,2936.00
2023-05-08T09:26:57.426Z,2958.00
2023-05-08T09:27:57.495Z,2981.00
2023-05-08T09:28:57.592Z,2982.00
2023-05-08T09:29:57.644Z,3010.00
2023-05-08T09:30:58.116Z,2997.00
2023-05-08T09:31:57.811Z,3028.00
2023-05-08T09:32:57.832Z,3032.00
2023-05-08T09:33:57.992Z,3036.00
2023-05-08T09:34:58.039Z,3026.00
2023-05-08T09:35:58.903Z,3027.00
2023-05-08T09:36:58.162Z,3027.00
2023-05-08T09:37:57.882Z,3034.00
2023-05-08T09:38:57.862Z,3045.00
2023-05-08T09:39:57.994Z,3082.00
2023-05-08T09:40:57.902Z,3097.00
2023-05-08T09:41:58.150Z,3047.00
2023-05-08T09:42:57.848Z,2922.00
2023-05-08T09:43:58.097Z,2680.00
2023-05-08T09:44:57.866Z,2515.00
2023-05-08T09:45:57.944Z,2432.00
2023-05-08T09:46:57.908Z,2486.00
2023-05-08T09:47:58.012Z,2517.00
2023-05-08T09:48:57.976Z,2514.00
2023-05-08T09:49:57.984Z,2542.00
2023-05-08T09:50:58.156Z,2578.00
2023-05-08T09:51:58.192Z,2583.00
2023-05-08T09:52:58.190Z,2585.00
2023-05-08T09:53:58.220Z,2592.00
2023-05-08T09:54:58.218Z,2642.00
2023-05-08T09:55:58.348Z,2655.00
2023-05-08T09:56:58.316Z,2744.00
2023-05-08T09:57:58.503Z,2814.00
2023-05-08T09:58:58.447Z,2881.00
2023-05-08T09:59:58.479Z,2884.00
2023-05-08T10:00:58.582Z,2871.00
2023-05-08T10:01:58.631Z,2863.00
2023-05-08T10:02:58.678Z,2904.00
2023-05-08T10:03:58.816Z,2913.00
2023-05-08T10:04:58.838Z,2911.00
2023-05-08T10:05:58.867Z,2953.00
2023-05-08T10:06:59.134Z,2942.00
2023-05-08T10:07:58.953Z,2897.00
2023-05-08T10:08:59.026Z,2904.00
2023-05-08T10:09:59.064Z,2790.00
2023-05-08T10:10:59.219Z,2750.00
2023-05-08T10:11:59.729Z,2723.00
2023-05-08T10:12:59.361Z,2726.00
2023-05-08T10:14:00.212Z,2775.00
2023-05-08T10:14:59.379Z,2748.00
2023-05-08T10:15:59.441Z,2775.00
2023-05-08T10:16:59.542Z,2757.00
2023-05-08T10:17:59.559Z,2751.00
2023-05-08T10:18:59.609Z,2766.00
2023-05-08T10:19:59.633Z,2844.00
2023-05-08T10:20:59.694Z,2857.00
2023-05-08T10:22:00.160Z,2922.00
2023-05-08T10:22:59.960Z,2928.00
2023-05-08T10:23:59.831Z,2926.00
2023-05-08T10:24:59.907Z,2907.00
2023-05-08T10:25:59.928Z,2901.00
2023-05-08T10:27:06.372Z,2928.00
2023-05-08T10:28:01.022Z,2930.00
2023-05-08T10:28:59.973Z,2941.00
2023-05-08T10:29:59.944Z,2947.00
2023-05-08T10:30:59.966Z,2936.00
2023-05-08T10:32:00.163Z,2918.00
2023-05-08T10:32:59.942Z,2929.00
2023-05-08T10:33:59.931Z,2925.00
2023-05-08T10:34:59.941Z,2907.00
2023-05-08T10:35:59.887Z,2903.00
2023-05-08T10:37:00.271Z,2904.00
2023-05-08T10:38:00.549Z,2875.00
2023-05-08T10:38:59.957Z,2865.00
2023-05-08T10:39:59.983Z,2878.00
2023-05-08T10:41:00.030Z,2744.00
2023-05-08T10:42:00.089Z,2733.00
2023-05-08T10:43:00.153Z,2656.00
2023-05-08T10:44:02.556Z,2633.00
2023-05-08T10:45:00.246Z,2691.00
2023-05-08T10:46:00.269Z,2736.00
2023-05-08T10:47:00.677Z,2716.00
2023-05-08T10:48:00.200Z,2609.00
2023-05-08T10:49:00.161Z,2526.00
2023-05-08T10:50:00.269Z,2398.00
2023-05-08T10:51:00.152Z,2263.00
2023-05-08T10:52:00.171Z,2160.00
2023-05-08T10:53:00.118Z,2061.00
2023-05-08T10:54:00.109Z,1948.00
2023-05-08T10:55:00.128Z,1856.00
2023-05-08T10:56:00.137Z,1830.00
2023-05-08T10:57:00.154Z,1735.00
2023-05-08T10:58:00.103Z,1711.00
2023-05-08T10:59:00.109Z,1661.00
2023-05-08T11:00:00.147Z,1638.00
2023-05-08T11:01:00.146Z,1624.00
2023-05-08T11:02:00.244Z,1611.00
2023-05-08T11:03:00.238Z,1554.00
2023-05-08T11:04:00.282Z,1541.00
2023-05-08T11:05:00.029Z,1491.00
2023-05-08T11:06:00.059Z,1448.00
2023-05-08T11:07:00.171Z,1442.00
2023-05-08T11:08:00.117Z,1341.00
2023-05-08T11:09:01.020Z,1298.00
2023-05-08T11:10:00.013Z,1276.00
2023-05-08T11:11:00.021Z,1268.00
2023-05-08T11:12:00.251Z,1257.00
2023-05-08T11:13:00.006Z,1219.00
2023-05-08T11:13:59.986Z,1159.00
2023-05-08T11:14:59.985Z,1136.00
2023-05-08T11:16:00.005Z,1128.00
2023-05-08T11:17:00.618Z,1113.00
2023-05-08T11:17:59.957Z,1116.00
2023-05-08T11:18:59.941Z,1138.00
2023-05-08T11:19:59.946Z,1196.00
2023-05-08T11:20:59.954Z,1217.00
2023-05-08T11:21:59.937Z,1171.00
2023-05-08T11:23:00.162Z,1142.00
2023-05-08T11:23:59.898Z,1128.00
2023-05-08T11:24:59.906Z,1102.00
2023-05-08T11:25:59.880Z,1088.00
2023-05-08T11:26:59.877Z,1077.00
2023-05-08T11:28:00.185Z,1103.00
2023-05-08T11:28:59.892Z,1085.00
2023-05-08T11:29:59.906Z,1238.00
2023-05-08T11:30:59.905Z,1351.00
2023-05-08T11:31:59.939Z,1313.00
2023-05-08T11:33:00.274Z,1174.00
2023-05-08T11:33:59.862Z,1105.00
2023-05-08T11:34:59.865Z,1127.00
2023-05-08T11:35:59.871Z,1167.00
2023-05-08T11:36:59.834Z,1124.00
2023-05-08T11:37:59.812Z,1149.00
2023-05-08T11:38:59.799Z,1095.00
2023-05-08T11:39:59.821Z,998.00
2023-05-08T11:40:59.840Z,879.00
2023-05-08T11:41:59.835Z,791.00
2023-05-08T11:42:59.866Z,752.00
2023-05-08T11:43:59.790Z,753.00
2023-05-08T11:44:59.798Z,776.00
2023-05-08T11:45:59.794Z,793.00
2023-05-08T11:46:59.866Z,814.00
2023-05-08T11:47:59.890Z,834.00
2023-05-08T11:48:59.886Z,875.00
2023-05-08T11:49:59.949Z,934.00
2023-05-08T11:50:59.945Z,990.00
2023-05-08T11:52:00.105Z,940.00
2023-05-08T11:53:00.031Z,871.00
2023-05-08T11:54:00.095Z,822.00
2023-05-08T11:55:00.063Z,866.00
2023-05-08T11:56:00.128Z,891.00
2023-05-08T11:57:00.083Z,831.00
2023-05-08T11:58:00.132Z,809.00
2023-05-08T11:59:00.174Z,847.00
2023-05-08T12:00:00.184Z,911.00
2023-05-08T12:01:00.296Z,952.00
2023-05-08T12:02:08.508Z,1000.00
2023-05-08T12:03:01.407Z,1002.00
2023-05-08T12:04:00.371Z,1014.00
2023-05-08T12:05:00.286Z,1019.00
2023-05-08T12:06:00.287Z,1020.00
2023-05-08T12:07:00.225Z,817.00